Time;durP1;ratioP1;P1;durP2;ratioP2;P2;SDS_P1;SDS_P2;PMS_P1;PMS_P2;Temp;Humidity;BMP_temperature;BMP_pressure;BME280_temperature;BME280_humidity;BME280_pressure;Samples;Min_cycle;Max_cycle;Signal;HPM_P1;HPM_P2
2022/03/01 00:01:35;;;;;;;76.05;31.00;;;;;;;-3.24;64.39;100363.97;5110507;28;20020;-70
2022/03/01 00:04:01;;;;;;;80.07;32.88;;;;;;;-3.26;64.52;100357.09;5110299;28;20020;-70
2022/03/01 00:06:26;;;;;;;75.47;31.65;;;;;;;-3.23;64.93;100364.81;5109949;28;20026;-70
2022/03/01 00:08:53;;;;;;;76.78;31.92;;;;;;;-3.23;64.34;100367.50;5110386;28;20158;-71
2022/03/01 00:11:20;;;;;;;92.72;35.83;;;;;;;-3.24;64.28;100363.97;5089518;28;20032;-72
2022/03/01 00:13:45;;;;;;;76.50;30.10;;;;;;;-3.23;64.79;100370.19;5108362;28;20023;-72
2022/03/01 00:16:11;;;;;;;70.07;28.85;;;;;;;-3.24;64.36;100365.81;5108763;28;20362;-72
2022/03/01 00:18:36;;;;;;;72.40;28.38;;;;;;;-3.26;64.26;100367.81;5088974;28;20030;-73
2022/03/01 00:21:02;;;;;;;73.47;28.88;;;;;;;-3.27;64.22;100367.00;5109156;28;20023;-73
2022/03/01 00:23:27;;;;;;;76.75;30.35;;;;;;;-3.28;64.40;100368.00;5109012;28;20038;-73
2022/03/01 00:25:52;;;;;;;74.25;27.67;;;;;;;-3.30;64.04;100352.03;5109556;28;20035;-73
2022/03/01 00:28:18;;;;;;;66.15;26.77;;;;;;;-3.31;64.35;100363.75;5109630;28;20284;-74
2022/03/01 00:30:43;;;;;;;74.45;30.00;;;;;;;-3.33;64.29;100357.72;5109388;28;20034;-73
2022/03/01 00:33:09;;;;;;;77.93;30.50;;;;;;;-3.34;64.61;100361.41;5109557;28;20027;-71
2022/03/01 00:35:34;;;;;;;74.93;29.63;;;;;;;-3.35;64.26;100361.56;5110037;28;20020;-72
2022/03/01 00:38:00;;;;;;;70.82;28.20;;;;;;;-3.35;64.75;100364.25;5110292;28;20376;-71
2022/03/01 00:40:25;;;;;;;74.53;29.48;;;;;;;-3.35;64.29;100356.19;5109932;28;20383;-71
2022/03/01 00:42:50;;;;;;;71.45;29.25;;;;;;;-3.39;64.48;100366.38;5109354;28;20106;-72
2022/03/01 00:45:16;;;;;;;79.00;31.20;;;;;;;-3.42;64.11;100360.50;5108355;28;20016;-72
2022/03/01 00:47:41;;;;;;;72.05;29.27;;;;;;;-3.46;64.33;100370.69;5088588;28;20016;-72
2022/03/01 00:50:07;;;;;;;76.30;30.30;;;;;;;-3.50;64.21;100364.00;5108988;28;20038;-72
2022/03/01 00:52:32;;;;;;;71.13;29.30;;;;;;;-3.55;64.20;100361.75;5108851;28;20068;-71
2022/03/01 00:54:58;;;;;;;74.72;28.40;;;;;;;-3.60;64.07;100358.69;5106807;28;20032;-71
2022/03/01 00:57:23;;;;;;;84.38;31.35;;;;;;;-3.66;64.00;100360.19;5109277;28;20042;-71
2022/03/01 00:59:48;;;;;;;73.28;27.50;;;;;;;-3.67;64.44;100363.03;5109050;28;20050;-71
2022/03/01 01:02:14;;;;;;;75.97;29.60;;;;;;;-3.69;64.45;100354.31;5109101;28;20077;-70
2022/03/01 01:04:39;;;;;;;73.28;30.65;;;;;;;-3.70;64.33;100355.31;5108876;28;20018;-70
2022/03/01 01:07:05;;;;;;;73.22;29.25;;;;;;;-3.69;64.94;100349.75;5109117;28;20027;-71
2022/03/01 01:09:30;;;;;;;79.57;30.88;;;;;;;-3.68;64.83;100351.44;5108700;28;20024;-71
2022/03/01 01:11:57;;;;;;;76.65;30.95;;;;;;;-3.66;64.56;100353.97;5108933;28;20124;-71
2022/03/01 01:14:22;;;;;;;84.70;33.17;;;;;;;-3.67;64.79;100357.66;5108856;28;20666;-71
2022/03/01 01:16:48;;;;;;;157.85;48.58;;;;;;;-3.69;64.97;100351.63;5108911;28;20023;-71
2022/03/01 01:19:13;;;;;;;142.23;42.20;;;;;;;-3.70;64.26;100358.81;5108823;28;20546;-71
2022/03/01 01:24:23;;;;;;;120.65;35.22;;;;;;;-3.70;64.64;100358.81;5108481;28;20051;-71
2022/03/01 01:26:48;;;;;;;87.50;29.13;;;;;;;-3.70;64.66;100353.44;5108933;28;20027;-71
2022/03/01 01:29:14;;;;;;;92.50;32.33;;;;;;;-3.75;64.81;100353.06;5109212;28;20027;-71
2022/03/01 01:31:39;;;;;;;81.53;31.92;;;;;;;-3.78;64.97;100359.59;5088905;28;20140;-71
2022/03/01 01:34:04;;;;;;;77.90;30.55;;;;;;;-3.80;65.31;100350.00;5108972;28;20088;-71
2022/03/01 01:36:30;;;;;;;76.28;31.52;;;;;;;-3.82;64.63;100354.69;5109018;28;20030;-72
2022/03/01 01:38:56;;;;;;;72.25;30.10;;;;;;;-3.84;65.04;100354.00;5108617;28;20050;-72
2022/03/01 01:41:21;;;;;;;83.70;30.67;;;;;;;-3.84;65.00;100359.34;5073736;28;20023;-73
2022/03/01 01:43:47;;;;;;;73.55;29.25;;;;;;;-3.82;65.32;100354.69;5108859;28;20020;-73
2022/03/01 01:46:12;;;;;;;76.38;30.10;;;;;;;-3.81;65.13;100353.69;5108601;28;20032;-73
2022/03/01 01:48:38;;;;;;;71.63;30.35;;;;;;;-3.84;65.12;100354.84;5107915;28;20023;-73
2022/03/01 01:51:03;;;;;;;84.40;31.85;;;;;;;-3.83;65.12;100350.31;5089298;28;20031;-73
2022/03/01 01:53:28;;;;;;;86.43;33.13;;;;;;;-3.82;65.34;100350.19;5108460;28;20030;-73
2022/03/01 01:55:54;;;;;;;103.50;35.85;;;;;;;-3.82;65.27;100358.22;5109442;28;20024;-72
2022/03/01 01:58:19;;;;;;;99.63;34.33;;;;;;;-3.79;65.29;100352.56;5112712;28;20043;-72
2022/03/01 02:00:45;;;;;;;103.70;36.45;;;;;;;-3.81;65.32;100361.72;5112529;28;20068;-73
2022/03/01 02:03:11;;;;;;;110.57;37.50;;;;;;;-3.85;65.32;100355.00;5112565;28;20096;-72
2022/03/01 02:05:36;;;;;;;104.47;37.10;;;;;;;-3.90;65.27;100364.38;5112731;28;20098;-73
2022/03/01 02:08:02;;;;;;;98.90;37.67;;;;;;;-3.97;64.95;100367.78;5112541;28;20016;-73
2022/03/01 02:10:28;;;;;;;90.50;35.08;;;;;;;-4.07;65.05;100354.47;5111680;28;20163;-73
2022/03/01 02:12:55;;;;;;;101.05;36.30;;;;;;;-4.17;65.01;100351.91;5109986;28;20412;-73
2022/03/01 02:15:21;;;;;;;98.85;35.83;;;;;;;-4.26;65.26;100353.63;5112376;28;20019;-73
2022/03/01 02:17:47;;;;;;;98.40;39.08;;;;;;;-4.26;65.69;100350.94;5112489;28;20027;-73
2022/03/01 02:20:20;;;;;;;101.78;36.97;;;;;;;-4.20;65.85;100354.88;5112186;28;20099;-73
2022/03/01 02:22:46;;;;;;;101.00;36.70;;;;;;;-4.18;65.42;100359.06;5112229;28;20026;-73
2022/03/01 02:25:13;;;;;;;96.25;35.55;;;;;;;-4.19;65.69;100356.56;5111878;28;20547;-73
2022/03/01 02:27:39;;;;;;;98.07;36.20;;;;;;;-4.20;65.89;100347.66;5112344;28;20024;-73
2022/03/01 02:30:06;;;;;;;111.57;39.30;;;;;;;-4.25;65.53;100349.97;5112144;28;20459;-73
2022/03/01 02:32:32;;;;;;;115.40;38.53;;;;;;;-4.30;65.39;100346.06;5112250;28;20016;-72
2022/03/01 02:34:58;;;;;;;106.55;37.40;;;;;;;-4.34;65.49;100345.53;5111909;28;20386;-73
2022/03/01 02:37:23;;;;;;;102.78;39.75;;;;;;;-4.37;65.61;100348.53;5112243;28;20782;-73
2022/03/01 02:39:49;;;;;;;108.00;39.90;;;;;;;-4.36;65.46;100360.91;5111893;28;20030;-73
2022/03/01 02:42:14;;;;;;;103.55;37.60;;;;;;;-4.40;65.65;100351.50;5112493;28;20106;-72
2022/03/01 02:44:40;;;;;;;101.95;37.10;;;;;;;-4.47;65.34;100348.56;5111912;28;20023;-73
2022/03/01 02:47:05;;;;;;;99.05;38.10;;;;;;;-4.52;65.26;100348.19;5112239;28;20032;-73
2022/03/01 02:49:30;;;;;;;104.57;38.88;;;;;;;-4.57;65.70;100356.66;5112547;28;20084;-73
2022/03/01 02:51:56;;;;;;;94.95;37.83;;;;;;;-4.62;65.35;100342.88;5112038;28;20414;-73
2022/03/01 02:54:21;;;;;;;99.70;38.15;;;;;;;-4.64;65.33;100344.88;5111839;28;20032;-72
2022/03/01 02:56:47;;;;;;;90.30;37.03;;;;;;;-4.68;65.73;100335.44;5111433;28;20028;-73
2022/03/01 02:59:12;;;;;;;97.20;36.22;;;;;;;-4.70;65.34;100335.63;5111691;28;20042;-73
2022/03/01 03:01:37;;;;;;;99.15;37.05;;;;;;;-4.69;65.88;100331.13;5111554;28;20063;-73
2022/03/01 03:04:04;;;;;;;101.70;36.53;;;;;;;-4.73;66.08;100332.41;5093140;28;20024;-73
2022/03/01 03:06:30;;;;;;;97.10;36.05;;;;;;;-4.77;65.40;100337.19;5111385;28;20035;-73
2022/03/01 03:08:56;;;;;;;106.70;38.55;;;;;;;-4.82;65.40;100339.47;5092413;28;20032;-73
2022/03/01 03:11:22;;;;;;;110.38;37.58;;;;;;;-4.87;65.40;100336.41;5111130;28;20487;-73
2022/03/01 03:13:49;;;;;;;112.05;38.35;;;;;;;-4.94;65.76;100341.53;5111197;28;20024;-72
2022/03/01 03:16:16;;;;;;;103.25;38.47;;;;;;;-5.01;65.69;100337.75;5108891;28;20493;-73
2022/03/01 03:18:42;;;;;;;108.32;39.15;;;;;;;-5.08;66.17;100332.97;5112304;28;20065;-72
2022/03/01 03:21:08;;;;;;;104.82;37.47;;;;;;;-5.11;66.22;100327.97;5111506;28;20106;-73
2022/03/01 03:23:34;;;;;;;106.45;36.33;;;;;;;-5.12;66.11;100330.78;5111504;28;20527;-73
2022/03/01 03:25:59;;;;;;;100.63;36.00;;;;;;;-5.15;66.32;100334.59;5110835;28;20076;-73
2022/03/01 03:28:25;;;;;;;106.10;39.67;;;;;;;-5.16;66.28;100332.06;5111876;28;20036;-73
2022/03/01 03:30:50;;;;;;;100.43;38.67;;;;;;;-5.17;65.81;100328.53;5111223;28;20032;-74
2022/03/01 03:33:15;;;;;;;96.30;36.00;;;;;;;-5.20;66.29;100328.84;5092003;28;20031;-73
2022/03/01 03:35:41;;;;;;;92.60;37.17;;;;;;;-5.22;66.11;100328.16;5111557;28;20019;-73
2022/03/01 03:38:06;;;;;;;84.53;36.13;;;;;;;-5.20;66.09;100336.00;5092703;28;20028;-73
2022/03/01 03:40:32;;;;;;;87.50;34.17;;;;;;;-5.21;66.31;100329.81;5109856;28;20031;-73
2022/03/01 03:42:57;;;;;;;91.28;35.78;;;;;;;-5.22;66.40;100330.81;5107920;28;20036;-73
2022/03/01 03:45:23;;;;;;;84.75;34.85;;;;;;;-5.23;66.21;100326.44;5109395;28;20115;-73
2022/03/01 03:47:49;;;;;;;92.90;35.72;;;;;;;-5.24;66.11;100330.13;5110216;28;20085;-77
2022/03/01 03:50:15;;;;;;;91.07;36.08;;;;;;;-5.26;66.53;100329.41;5110099;28;20031;-77
2022/03/01 03:52:41;;;;;;;93.57;36.35;;;;;;;-5.27;66.16;100325.88;5110463;28;20220;-77
2022/03/01 03:55:08;;;;;;;100.78;37.80;;;;;;;-5.27;66.63;100327.72;5110733;28;20463;-77
2022/03/01 03:57:35;;;;;;;96.97;36.97;;;;;;;-5.30;66.08;100328.88;5110028;28;20071;-78
2022/03/01 04:00:03;;;;;;;102.28;38.58;;;;;;;-5.33;66.28;100325.66;5110666;28;20066;-78
2022/03/01 04:02:28;;;;;;;93.63;36.92;;;;;;;-5.35;66.24;100325.81;5110725;28;20023;-78
2022/03/01 04:04:54;;;;;;;105.57;38.13;;;;;;;-5.38;66.59;100321.56;5110680;28;20460;-79
2022/03/01 04:07:19;;;;;;;100.05;38.40;;;;;;;-5.39;66.47;100324.41;5110932;28;20395;-78
2022/03/01 04:09:44;;;;;;;94.82;37.03;;;;;;;-5.39;66.65;100317.22;5111534;28;20429;-78
2022/03/01 04:12:10;;;;;;;100.10;38.95;;;;;;;-5.39;66.91;100311.88;5111602;28;20058;-78
2022/03/01 04:14:36;;;;;;;105.05;39.33;;;;;;;-5.40;66.85;100306.69;5111004;28;20028;-78
2022/03/01 04:17:02;;;;;;;147.38;46.45;;;;;;;-5.40;66.37;100304.81;5111350;28;20405;-77
2022/03/01 04:19:28;;;;;;;148.90;43.85;;;;;;;-5.43;66.94;100293.59;5110426;28;20028;-78
2022/03/01 04:21:53;;;;;;;124.53;41.60;;;;;;;-5.47;66.61;100300.22;5111134;28;20102;-78
2022/03/01 04:24:18;;;;;;;118.55;44.05;;;;;;;-5.51;66.71;100297.00;5111266;28;20020;-78
2022/03/01 04:26:44;;;;;;;114.72;40.75;;;;;;;-5.55;67.21;100287.59;5111178;28;20542;-78
2022/03/01 04:29:09;;;;;;;112.68;41.72;;;;;;;-5.55;66.82;100290.25;5111081;28;20034;-78
2022/03/01 04:31:35;;;;;;;124.90;41.50;;;;;;;-5.56;66.73;100288.59;5110492;28;20023;-78
2022/03/01 04:34:01;;;;;;;164.55;49.53;;;;;;;-5.56;66.54;100284.06;5111218;28;20019;-78
2022/03/01 04:36:27;;;;;;;162.93;50.58;;;;;;;-5.58;66.80;100286.03;5110011;28;20023;-77
2022/03/01 04:38:53;;;;;;;191.43;56.65;;;;;;;-5.57;67.30;100285.06;5110996;28;20088;-78
2022/03/01 04:41:19;;;;;;;182.98;54.97;;;;;;;-5.56;67.03;100278.72;5091223;28;20113;-78
2022/03/01 04:43:45;;;;;;;174.98;51.53;;;;;;;-5.57;67.39;100271.69;5110533;28;20011;-78
2022/03/01 04:46:10;;;;;;;174.60;50.15;;;;;;;-5.59;67.11;100281.69;5110773;28;20076;-78
2022/03/01 04:48:37;;;;;;;180.80;52.00;;;;;;;-5.61;66.78;100272.13;5111177;28;20032;-78
2022/03/01 04:51:03;;;;;;;173.32;50.95;;;;;;;-5.63;66.81;100280.28;5110631;28;20031;-78
2022/03/01 04:53:28;;;;;;;158.38;48.05;;;;;;;-5.67;67.02;100281.56;5110736;28;20020;-78
2022/03/01 04:55:54;;;;;;;159.90;48.00;;;;;;;-5.69;67.44;100286.19;5074825;28;20031;-78
2022/03/01 04:58:19;;;;;;;186.45;55.95;;;;;;;-5.69;67.54;100273.69;5109737;28;20419;-79
2022/03/01 05:00:44;;;;;;;165.82;51.38;;;;;;;-5.69;67.70;100278.19;5110483;28;20765;-78
2022/03/01 05:03:10;;;;;;;184.30;57.50;;;;;;;-5.68;67.75;100269.19;5110356;28;20023;-78
2022/03/01 05:05:35;;;;;;;199.82;62.97;;;;;;;-5.67;67.36;100270.88;5109906;28;20099;-78
2022/03/01 05:08:01;;;;;;;208.73;64.43;;;;;;;-5.69;67.31;100271.03;5109884;28;20024;-78
2022/03/01 05:10:27;;;;;;;221.77;74.13;;;;;;;-5.72;67.27;100270.50;5108310;28;20035;-78
2022/03/01 05:12:58;;;;;;;199.30;70.05;;;;;;;-5.72;67.08;100262.47;5110067;28;20032;-77
2022/03/01 05:15:26;;;;;;;188.80;67.85;;;;;;;-5.71;67.64;100272.16;5110012;28;20020;-77
2022/03/01 05:17:53;;;;;;;172.75;61.88;;;;;;;-5.72;67.60;100279.34;5110257;28;20023;-77
2022/03/01 05:20:20;;;;;;;162.27;61.38;;;;;;;-5.72;67.64;100271.31;5110031;28;20058;-77
2022/03/01 05:22:46;;;;;;;172.68;61.17;;;;;;;-5.72;68.07;100271.31;5110502;28;20034;-78
2022/03/01 05:25:14;;;;;;;160.65;58.33;;;;;;;-5.70;67.28;100281.84;5109955;28;20023;-78
2022/03/01 05:27:43;;;;;;;185.88;64.60;;;;;;;-5.69;67.80;100278.19;5110430;28;20091;-78
2022/03/01 05:30:11;;;;;;;195.32;68.15;;;;;;;-5.64;67.41;100273.25;5109480;28;20067;-78
2022/03/01 05:32:39;;;;;;;206.75;69.25;;;;;;;-5.63;67.94;100279.44;5110473;28;20046;-78
2022/03/01 05:35:09;;;;;;;185.38;62.22;;;;;;;-5.62;67.95;100275.78;5109530;28;20398;-78
2022/03/01 05:37:35;;;;;;;193.13;63.22;;;;;;;-5.59;67.85;100279.00;5109810;28;20030;-77
2022/03/01 05:40:01;;;;;;;150.00;52.20;;;;;;;-5.59;67.46;100272.84;5109856;28;20027;-78
2022/03/01 05:42:26;;;;;;;147.13;48.95;;;;;;;-5.60;67.60;100266.63;5109445;28;20031;-78
2022/03/01 05:44:52;;;;;;;139.98;49.55;;;;;;;-5.59;67.27;100267.47;5109902;28;20015;-79
2022/03/01 05:47:17;;;;;;;128.88;43.95;;;;;;;-5.59;67.60;100268.31;5110129;28;20039;-79
2022/03/01 05:49:42;;;;;;;137.20;47.03;;;;;;;-5.56;67.37;100276.03;5110220;28;20032;-79
2022/03/01 05:52:08;;;;;;;141.13;48.90;;;;;;;-5.54;67.79;100275.91;5092109;28;20055;-79
2022/03/01 05:54:33;;;;;;;152.68;53.53;;;;;;;-5.48;68.12;100282.50;5109685;28;20034;-79
2022/03/01 05:56:59;;;;;;;152.30;54.72;;;;;;;-5.43;67.57;100288.25;5109495;28;20019;-78
2022/03/01 05:59:24;;;;;;;150.55;54.17;;;;;;;-5.38;68.06;100288.66;5109352;28;20074;-78
2022/03/01 06:01:50;;;;;;;158.73;55.25;;;;;;;-5.33;67.60;100291.72;5110343;28;20035;-78
2022/03/01 06:04:15;;;;;;;166.27;60.22;;;;;;;-5.29;67.50;100293.09;5091834;28;20027;-79
2022/03/01 06:06:41;;;;;;;180.95;61.13;;;;;;;-5.26;67.77;100284.78;5105408;28;20111;-78
2022/03/01 06:09:06;;;;;;;165.20;58.45;;;;;;;-5.24;67.72;100288.16;5090925;28;20574;-78
2022/03/01 06:11:32;;;;;;;169.30;61.38;;;;;;;-5.21;67.94;100281.69;5091897;28;20024;-78
2022/03/01 06:13:57;;;;;;;156.15;61.03;;;;;;;-5.16;68.01;100295.44;5108848;28;20023;-78
2022/03/01 06:16:23;;;;;;;147.00;57.05;;;;;;;-5.12;67.69;100293.31;5109327;28;20036;-78
2022/03/01 06:18:48;;;;;;;142.55;56.00;;;;;;;-5.08;67.75;100292.84;5109795;28;20023;-78
2022/03/01 06:21:14;;;;;;;139.15;52.25;;;;;;;-5.03;67.71;100283.53;5109252;28;20034;-78
2022/03/01 06:23:39;;;;;;;120.85;47.50;;;;;;;-4.97;67.83;100293.66;5109852;28;20022;-78
2022/03/01 06:26:04;;;;;;;109.68;44.47;;;;;;;-4.90;67.79;100299.25;5109471;28;20039;-78
2022/03/01 06:28:30;;;;;;;102.85;42.00;;;;;;;-4.85;67.89;100294.28;5109427;28;20030;-78
2022/03/01 06:30:55;;;;;;;102.85;41.88;;;;;;;-4.80;67.81;100294.66;5090764;28;20114;-78
2022/03/01 06:33:21;;;;;;;99.05;41.65;;;;;;;-4.72;68.15;100296.63;5109259;28;20030;-78
2022/03/01 06:35:47;;;;;;;111.55;44.03;;;;;;;-4.67;67.98;100289.81;5109330;28;20035;-78
2022/03/01 06:38:12;;;;;;;140.05;51.92;;;;;;;-4.61;68.07;100291.03;5109208;28;20016;-78
2022/03/01 06:40:38;;;;;;;126.32;48.22;;;;;;;-4.55;68.34;100295.78;5109045;28;20034;-78
2022/03/01 06:43:04;;;;;;;128.70;49.60;;;;;;;-4.48;68.29;100298.66;5111708;28;20032;-78
2022/03/01 06:45:29;;;;;;;151.18;54.33;;;;;;;-4.45;68.26;100298.38;5112609;28;20030;-78
2022/03/01 06:47:55;;;;;;;141.27;51.45;;;;;;;-4.39;68.14;100299.63;5112692;28;20019;-78
2022/03/01 06:50:21;;;;;;;154.60;56.15;;;;;;;-4.31;68.48;100288.97;5112563;28;20030;-78
2022/03/01 06:52:47;;;;;;;146.25;50.05;;;;;;;-4.22;68.34;100282.66;5112494;28;20027;-78
2022/03/01 06:55:13;;;;;;;173.40;57.05;;;;;;;-4.13;68.82;100280.91;5112693;28;20016;-78
2022/03/01 06:57:41;;;;;;;155.18;54.28;;;;;;;-4.04;68.95;100287.19;5111869;28;20071;-78
2022/03/01 07:00:08;;;;;;;157.88;58.75;;;;;;;-3.94;68.89;100295.13;5111804;28;20027;-79
2022/03/01 07:02:38;;;;;;;126.20;46.80;;;;;;;-3.83;69.11;100291.34;5111826;28;20370;-79
2022/03/01 07:05:06;;;;;;;95.90;41.88;;;;;;;-3.74;69.07;100290.41;5111420;28;20694;-79
2022/03/01 07:07:31;;;;;;;84.78;35.65;;;;;;;-3.65;68.93;100291.28;5111508;28;20075;-78
2022/03/01 07:09:57;;;;;;;85.22;35.80;;;;;;;-3.61;69.17;100282.78;5111747;28;20039;-79
2022/03/01 07:12:22;;;;;;;85.35;35.25;;;;;;;-3.53;68.84;100287.34;5111907;28;20034;-78
2022/03/01 07:14:49;;;;;;;84.05;35.22;;;;;;;-3.45;68.70;100292.75;5111339;28;20195;-78
2022/03/01 07:17:16;;;;;;;83.15;37.53;;;;;;;-3.39;68.88;100285.06;5111662;28;20028;-79
2022/03/01 07:19:42;;;;;;;83.38;34.38;;;;;;;-3.34;68.94;100288.94;5109696;28;20126;-79
2022/03/01 07:22:07;;;;;;;66.20;30.42;;;;;;;-3.23;69.50;100289.69;5111404;28;20095;-80
2022/03/01 07:24:33;;;;;;;68.65;30.77;;;;;;;-3.18;69.17;100295.41;5111418;28;20024;-79
2022/03/01 07:26:58;;;;;;;68.10;30.73;;;;;;;-3.13;69.16;100306.50;5110923;28;20046;-79
2022/03/01 07:29:24;;;;;;;59.85;27.10;;;;;;;-3.04;69.28;100299.31;5112298;28;20027;-79
2022/03/01 07:31:49;;;;;;;61.85;28.27;;;;;;;-2.97;69.20;100289.63;5111634;28;20080;-79
2022/03/01 07:34:15;;;;;;;67.50;28.92;;;;;;;-2.88;69.34;100293.16;5111851;28;20031;-80
2022/03/01 07:36:40;;;;;;;66.78;29.58;;;;;;;-2.83;69.63;100296.19;5111840;28;20023;-79
2022/03/01 07:39:06;;;;;;;66.28;31.52;;;;;;;-2.77;69.37;100302.75;5111915;28;20092;-78
2022/03/01 07:41:31;;;;;;;68.50;31.00;;;;;;;-2.72;69.36;100295.03;5111102;28;20031;-78
2022/03/01 07:43:56;;;;;;;65.28;29.85;;;;;;;-2.65;69.56;100285.34;5110812;28;20016;-78
2022/03/01 07:46:22;;;;;;;69.80;31.50;;;;;;;-2.55;69.82;100293.25;5111275;28;20016;-78
2022/03/01 07:48:47;;;;;;;68.70;31.02;;;;;;;-2.46;69.77;100294.94;5111194;28;20496;-75
2022/03/01 07:51:13;;;;;;;72.38;31.58;;;;;;;-2.37;69.74;100298.47;5111389;28;20148;-75
2022/03/01 07:53:38;;;;;;;64.78;30.65;;;;;;;-2.30;69.67;100293.28;5110015;28;20007;-78
2022/03/01 07:56:05;;;;;;;78.70;34.22;;;;;;;-2.19;69.43;100294.81;5111179;28;20027;-75
2022/03/01 07:58:30;;;;;;;76.32;32.97;;;;;;;-2.14;69.57;100293.28;5092158;28;20039;-78
2022/03/01 08:00:55;;;;;;;69.85;33.53;;;;;;;-2.05;69.60;100298.66;5112289;28;20556;-76
2022/03/01 08:03:21;;;;;;;67.55;30.15;;;;;;;-1.95;69.30;100291.28;5094148;28;20027;-76
2022/03/01 08:05:47;;;;;;;67.43;29.95;;;;;;;-1.87;69.49;100288.59;5112356;28;20019;-76
2022/03/01 08:08:13;;;;;;;75.28;33.22;;;;;;;-1.77;69.42;100282.16;5112780;28;20449;-75
2022/03/01 08:10:40;;;;;;;70.85;34.92;;;;;;;-1.69;69.25;100282.16;5112682;28;20152;-75
2022/03/01 08:13:05;;;;;;;65.00;31.05;;;;;;;-1.61;69.24;100273.22;5109887;28;20038;-79
2022/03/01 08:15:30;;;;;;;68.88;29.77;;;;;;;-1.53;69.19;100276.75;5110037;28;20020;-76
2022/03/01 08:17:57;;;;;;;56.92;26.63;;;;;;;-1.44;69.28;100282.94;5104873;28;21979;-78
2022/03/01 08:20:23;;;;;;;59.60;25.92;;;;;;;-1.32;69.27;100282.56;5109782;28;20027;-79
2022/03/01 08:22:49;;;;;;;50.50;24.40;;;;;;;-1.25;69.16;100276.31;5111304;28;20541;-81
2022/03/01 08:25:15;;;;;;;48.08;21.70;;;;;;;-1.14;69.21;100269.72;5110982;28;20357;-81
2022/03/01 08:27:40;;;;;;;41.05;18.90;;;;;;;-1.04;68.56;100269.50;5111167;28;20027;-79
2022/03/01 08:30:07;;;;;;;39.83;20.08;;;;;;;-0.97;68.45;100265.06;5109263;28;20027;-79
2022/03/01 08:32:33;;;;;;;32.97;15.77;;;;;;;-0.85;68.29;100272.78;5111740;27;20027;-81
2022/03/01 08:34:58;;;;;;;33.88;16.65;;;;;;;-0.77;67.86;100270.88;5109788;28;20019;-77
2022/03/01 08:37:24;;;;;;;34.60;16.58;;;;;;;-0.70;67.88;100265.63;5112536;27;20030;-79
2022/03/01 08:39:49;;;;;;;35.60;17.30;;;;;;;-0.62;67.48;100267.44;5092100;28;20027;-81
2022/03/01 08:42:15;;;;;;;38.00;17.05;;;;;;;-0.54;66.96;100263.81;5110518;28;20477;-79
2022/03/01 08:44:40;;;;;;;35.65;17.73;;;;;;;-0.47;66.59;100259.41;5110338;28;20031;-77
2022/03/01 08:47:05;;;;;;;38.10;16.88;;;;;;;-0.38;66.64;100263.72;5090404;28;20016;-79
2022/03/01 08:49:31;;;;;;;34.22;16.02;;;;;;;-0.30;66.01;100262.81;5109020;28;20036;-77
2022/03/01 08:51:57;;;;;;;29.30;14.95;;;;;;;-0.21;66.45;100263.59;5110339;28;20120;-74
2022/03/01 08:54:23;;;;;;;30.90;14.27;;;;;;;-0.11;65.94;100258.78;5106190;28;20043;-77
2022/03/01 08:56:49;;;;;;;31.25;14.77;;;;;;;-0.03;66.10;100250.63;5110075;28;20077;-79
2022/03/01 08:59:14;;;;;;;30.67;15.10;;;;;;;0.06;65.57;100247.84;5107554;28;20123;-77
2022/03/01 09:01:40;;;;;;;33.28;15.63;;;;;;;0.13;65.54;100238.84;5109002;28;20132;-81
2022/03/01 09:04:05;;;;;;;29.17;14.48;;;;;;;0.22;65.36;100236.88;5108579;28;20024;-78
2022/03/01 09:06:31;;;;;;;31.05;13.93;;;;;;;0.32;65.10;100235.78;5108767;28;20076;-81
2022/03/01 09:08:56;;;;;;;26.17;12.57;;;;;;;0.37;64.54;100222.56;5109155;28;20440;-75
2022/03/01 09:11:22;;;;;;;32.88;14.63;;;;;;;0.44;64.31;100223.50;5108937;28;20022;-76
2022/03/01 09:13:47;;;;;;;27.85;13.15;;;;;;;0.50;64.19;100224.63;5107845;28;20106;-76
2022/03/01 09:16:13;;;;;;;28.88;13.25;;;;;;;0.59;64.00;100228.91;5108948;28;20468;-79
2022/03/01 09:18:39;;;;;;;27.35;12.32;;;;;;;0.67;63.51;100217.16;5104509;28;20066;-73
2022/03/01 09:21:05;;;;;;;32.83;13.02;;;;;;;0.75;63.73;100214.34;5108791;27;20042;-73
2022/03/01 09:23:30;;;;;;;106.55;32.63;;;;;;;0.84;63.72;100215.09;5108265;27;20019;-79
2022/03/01 09:25:56;;;;;;;115.20;36.22;;;;;;;0.92;62.90;100209.56;5108288;28;20031;-76
2022/03/01 09:28:22;;;;;;;99.72;33.00;;;;;;;1.03;62.08;100206.41;5107326;28;20016;-76
2022/03/01 09:30:48;;;;;;;28.58;12.45;;;;;;;1.08;61.16;100211.22;5088241;28;20020;-73
2022/03/01 09:33:13;;;;;;;26.75;11.38;;;;;;;1.12;61.49;100215.22;5108086;28;20554;-75
2022/03/01 09:35:39;;;;;;;51.85;18.27;;;;;;;1.18;60.88;100202.81;5105366;28;20023;-75
2022/03/01 09:38:05;;;;;;;42.05;14.93;;;;;;;1.26;60.88;100199.16;5107718;28;20055;-75
2022/03/01 09:40:30;;;;;;;30.55;11.82;;;;;;;1.35;60.30;100198.00;5108221;28;20122;-74
2022/03/01 09:42:56;;;;;;;102.32;27.65;;;;;;;1.41;59.34;100191.81;5107361;28;20163;-80
2022/03/01 09:45:22;;;;;;;93.38;28.38;;;;;;;1.46;59.71;100194.75;5106877;28;20048;-77
2022/03/01 09:47:48;;;;;;;38.47;15.10;;;;;;;1.55;60.06;100184.66;5108356;28;21604;-79
2022/03/01 09:50:15;;;;;;;85.68;26.17;;;;;;;1.64;59.57;100179.97;5105799;28;20483;-78
2022/03/01 09:52:42;;;;;;;83.25;26.85;;;;;;;1.67;59.81;100182.28;5108002;28;20067;-76
2022/03/01 09:55:08;;;;;;;50.80;19.05;;;;;;;1.73;59.02;100186.91;5089580;28;20032;-78
2022/03/01 09:57:34;;;;;;;35.53;14.90;;;;;;;1.82;58.70;100184.88;5106986;28;20056;-75
2022/03/01 09:59:59;;;;;;;29.23;13.32;;;;;;;1.87;58.17;100173.47;5099654;28;20084;-74
2022/03/01 10:02:36;;;;;;;20.90;10.05;;;;;;;1.97;57.83;100184.78;5103241;28;20023;-76
2022/03/01 10:05:02;;;;;;;17.55;8.40;;;;;;;2.00;56.83;100184.41;5106030;28;20054;-79
2022/03/01 10:07:29;;;;;;;16.80;8.02;;;;;;;2.02;56.84;100174.22;5107580;28;20138;-76
2022/03/01 10:10:07;;;;;;;15.38;7.20;;;;;;;2.08;54.65;100175.28;5107010;28;20040;-77
2022/03/01 10:12:32;;;;;;;21.63;8.82;;;;;;;2.15;56.01;100178.06;5107447;28;20365;-75
2022/03/01 10:15:03;;;;;;;19.10;9.15;;;;;;;2.27;54.63;100181.03;5105270;28;20053;-76
2022/03/01 10:17:43;;;;;;;21.27;9.93;;;;;;;2.26;52.66;100177.47;5108493;28;20076;-76
2022/03/01 10:20:19;;;;;;;13.98;7.78;;;;;;;2.26;53.11;100166.63;5111310;28;20034;-77
2022/03/01 10:22:48;;;;;;;20.08;8.63;;;;;;;2.32;53.52;100162.31;5112217;28;20102;-76
2022/03/01 10:25:15;;;;;;;13.40;6.18;;;;;;;2.36;52.35;100150.88;5109934;28;20219;-77
2022/03/01 10:27:45;;;;;;;11.70;7.13;;;;;;;2.41;54.02;100150.28;5110934;28;20417;-79
2022/03/01 10:30:11;;;;;;;13.48;7.00;;;;;;;2.48;52.86;100144.91;5110786;28;20066;-78
2022/03/01 10:32:36;;;;;;;13.30;6.85;;;;;;;2.59;53.17;100143.47;5111557;27;20246;-76
2022/03/01 10:35:04;;;;;;;17.08;8.35;;;;;;;2.73;52.21;100136.22;5111795;27;20075;-76
2022/03/01 10:37:32;;;;;;;17.63;10.23;;;;;;;2.82;52.77;100138.56;5110922;28;20024;-73
2022/03/01 10:40:20;;;;;;;14.88;7.45;;;;;;;2.89;50.85;100127.75;5109369;28;20031;-72
2022/03/01 10:42:59;;;;;;;11.48;6.47;;;;;;;2.94;51.17;100129.84;5087112;28;20468;-74
2022/03/01 10:45:49;;;;;;;13.77;6.00;;;;;;;3.00;51.94;100139.03;5109280;28;20084;-73
2022/03/01 10:48:37;;;;;;;10.27;6.22;;;;;;;3.02;52.31;100131.53;5108676;28;20971;-74
2022/03/01 10:51:09;;;;;;;15.05;7.60;;;;;;;3.04;51.17;100119.44;5110707;28;20031;-74
2022/03/01 10:53:40;;;;;;;39.83;17.80;;;;;;;3.17;49.70;100120.50;5111171;28;20031;-75
2022/03/01 10:56:11;;;;;;;19.73;9.43;;;;;;;3.24;48.57;100102.38;5112034;28;20080;-75
2022/03/01 10:58:38;;;;;;;16.83;8.15;;;;;;;3.31;49.02;100111.31;5111924;28;20090;-75
2022/03/01 11:01:09;;;;;;;16.58;8.32;;;;;;;3.39;49.52;100108.41;5092943;28;20495;-75
2022/03/01 11:03:35;;;;;;;22.38;11.27;;;;;;;3.48;49.54;100108.22;5111220;28;20085;-76
2022/03/01 11:06:01;;;;;;;14.32;7.82;;;;;;;3.56;49.70;100102.59;5111747;28;20024;-77
2022/03/01 11:08:40;;;;;;;19.65;9.30;;;;;;;3.66;49.81;100102.16;5111820;28;20518;-75